createdAt,value
2019-04-19T00:01:20.547Z,10.02
2019-04-19T00:03:51.196Z,10.02
2019-04-19T00:06:36.666Z,9.96
2019-04-19T00:09:16.694Z,9.94
2019-04-19T00:11:42.302Z,9.88
2019-04-19T00:14:06.421Z,9.77
2019-04-19T00:16:36.448Z,9.68
2019-04-19T00:19:25.157Z,9.69
2019-04-19T00:22:04.725Z,9.74
2019-04-19T00:24:08.211Z,9.73
2019-04-19T00:26:38.010Z,9.67
2019-04-19T00:29:16.720Z,9.63
2019-04-19T00:31:48.015Z,9.68
2019-04-19T00:34:10.395Z,9.66
2019-04-19T00:36:40.859Z,9.66
2019-04-19T00:39:41.044Z,9.72
2019-04-19T00:42:17.904Z,9.66
2019-04-19T00:45:01.995Z,9.63
2019-04-19T00:47:23.628Z,9.58
2019-04-19T00:49:55.390Z,9.51
2019-04-19T00:52:23.437Z,9.46
2019-04-19T00:54:56.524Z,9.41
2019-04-19T00:57:20.455Z,9.41
2019-04-19T00:59:46.536Z,9.43
2019-04-19T01:02:16.962Z,9.41
2019-04-19T01:04:45.128Z,9.37
2019-04-19T01:07:21.224Z,9.31
2019-04-19T01:10:03.320Z,9.24
2019-04-19T01:12:27.245Z,9.21
2019-04-19T01:15:04.720Z,9.18
2019-04-19T01:17:33.249Z,9.19
2019-04-19T01:19:55.777Z,9.19
2019-04-19T01:22:26.173Z,9.14
2019-04-19T01:24:53.371Z,9.10
2019-04-19T01:27:27.613Z,9.10
2019-04-19T01:29:57.503Z,9.04
2019-04-19T01:32:26.297Z,9.01
2019-04-19T01:35:00.902Z,9.06
2019-04-19T01:37:28.701Z,9.04
2019-04-19T01:40:15.870Z,8.98
2019-04-19T01:42:43.847Z,8.98
2019-04-19T01:45:17.307Z,8.95
2019-04-19T01:47:54.034Z,8.97
2019-04-19T01:50:25.320Z,8.98
2019-04-19T01:53:03.574Z,8.96
2019-04-19T01:55:20.665Z,8.93
2019-04-19T01:57:45.211Z,8.94
2019-04-19T02:00:25.239Z,8.89
2019-04-19T02:02:52.690Z,8.78
2019-04-19T02:05:19.509Z,8.79
2019-04-19T02:07:55.371Z,8.81
2019-04-19T02:11:27.944Z,8.81
2019-04-19T02:13:56.536Z,8.76
2019-04-19T02:16:20.460Z,8.74
2019-04-19T02:18:47.930Z,8.73
2019-04-19T02:21:24.488Z,8.68
2019-04-19T02:23:54.032Z,8.66
2019-04-19T02:26:21.261Z,8.71
2019-04-19T02:28:51.375Z,8.70
2019-04-19T02:31:44.406Z,8.68
2019-04-19T02:34:21.599Z,8.67
2019-04-19T02:39:30.886Z,8.64
2019-04-19T02:42:16.810Z,8.66
2019-04-19T02:44:46.100Z,8.60
2019-04-19T02:47:14.742Z,8.56
2019-04-19T02:49:37.092Z,8.59
2019-04-19T02:52:06.691Z,8.59
2019-04-19T02:54:38.082Z,8.58
2019-04-19T02:57:29.406Z,8.53
2019-04-19T03:00:13.354Z,8.55
2019-04-19T03:02:47.823Z,8.49
2019-04-19T03:07:17.563Z,8.43
2019-04-19T03:09:48.676Z,8.38
2019-04-19T03:12:36.759Z,8.36
2019-04-19T03:15:07.525Z,8.40
2019-04-19T03:17:41.374Z,8.34
2019-04-19T03:20:05.376Z,8.28
2019-04-19T03:22:40.830Z,8.25
2019-04-19T03:25:10.881Z,8.27
2019-04-19T03:27:40.870Z,8.24
2019-04-19T03:30:14.556Z,8.26
2019-04-19T03:33:05.264Z,8.25
2019-04-19T03:35:12.589Z,8.24
2019-04-19T03:37:53.175Z,8.24
2019-04-19T03:40:23.350Z,8.22
2019-04-19T03:42:49.119Z,8.21
2019-04-19T03:45:28.735Z,8.19
2019-04-19T03:48:04.685Z,8.19
2019-04-19T03:50:36.297Z,8.19
2019-04-19T03:53:03.249Z,8.24
2019-04-19T03:55:36.042Z,8.24
2019-04-19T03:57:58.130Z,8.19
2019-04-19T04:00:19.770Z,8.13
2019-04-19T04:02:50.006Z,8.19
2019-04-19T04:05:22.658Z,8.17
2019-04-19T04:08:02.724Z,8.19
2019-04-19T04:10:34.449Z,8.23
2019-04-19T04:13:36.559Z,8.24
2019-04-19T04:16:05.697Z,8.22
2019-04-19T04:18:24.106Z,8.24
2019-04-19T04:20:56.958Z,8.20
2019-04-19T04:23:31.730Z,8.22
2019-04-19T04:26:02.842Z,8.26
2019-04-19T04:28:42.661Z,8.25
2019-04-19T04:31:11.084Z,8.19
2019-04-19T04:33:42.624Z,8.21
2019-04-19T04:36:23.699Z,8.21
2019-04-19T04:38:37.940Z,8.25
2019-04-19T04:41:08.431Z,8.25
2019-04-19T04:43:44.709Z,8.25
2019-04-19T04:46:32.717Z,8.27
2019-04-19T04:49:13.638Z,8.37
2019-04-19T04:51:38.929Z,8.38
2019-04-19T04:53:57.415Z,8.44
2019-04-19T04:56:47.348Z,8.42
2019-04-19T04:59:13.076Z,8.43
2019-04-19T05:01:53.875Z,8.49
2019-04-19T05:04:27.194Z,8.51
2019-04-19T05:07:08.347Z,8.55
2019-04-19T05:09:32.690Z,8.66
2019-04-19T05:12:15.278Z,8.65
2019-04-19T05:14:33.933Z,8.67
2019-04-19T05:17:24.586Z,8.73
2019-04-19T05:19:40.468Z,8.89
2019-04-19T05:22:08.554Z,8.90
2019-04-19T05:24:51.995Z,8.94
2019-04-19T05:27:15.319Z,8.95
2019-04-19T05:29:35.893Z,8.97
2019-04-19T05:32:04.836Z,8.92
2019-04-19T05:34:49.875Z,8.98
2019-04-19T05:37:36.406Z,9.03
2019-04-19T05:40:12.222Z,9.19
2019-04-19T05:42:42.809Z,9.25
2019-04-19T05:45:26.121Z,9.25
2019-04-19T05:47:37.414Z,9.32
2019-04-19T05:50:17.127Z,9.37
2019-04-19T05:52:42.360Z,9.44
2019-04-19T05:54:58.154Z,9.54
2019-04-19T05:57:45.465Z,9.57
2019-04-19T06:00:13.949Z,9.63
2019-04-19T06:02:37.477Z,9.79
2019-04-19T06:05:22.285Z,9.83
2019-04-19T06:07:45.567Z,9.85
2019-04-19T06:10:08.919Z,9.92
2019-04-19T06:12:38.956Z,10.09
2019-04-19T06:15:34.282Z,10.13
2019-04-19T06:18:00.712Z,10.23
2019-04-19T06:20:34.008Z,10.31
2019-04-19T06:23:09.326Z,10.37
2019-04-19T06:25:49.083Z,10.54
2019-04-19T06:28:17.909Z,10.69
2019-04-19T06:30:40.946Z,10.76
2019-04-19T06:33:10.750Z,10.83
2019-04-19T06:35:37.717Z,10.90
2019-04-19T06:37:56.865Z,11.02
2019-04-19T06:40:31.148Z,11.03
2019-04-19T06:43:07.939Z,11.11
2019-04-19T06:45:48.257Z,11.14
2019-04-19T06:48:07.141Z,11.23
2019-04-19T06:50:36.625Z,11.35
2019-04-19T06:53:03.758Z,11.41
2019-04-19T06:55:38.437Z,11.46
2019-04-19T06:58:12.446Z,11.53
2019-04-19T07:00:49.365Z,11.69
2019-04-19T07:03:10.453Z,11.77
2019-04-19T07:05:51.014Z,11.73
2019-04-19T07:08:52.792Z,11.80
2019-04-19T07:11:06.090Z,11.91
2019-04-19T07:13:24.850Z,12.01
2019-04-19T07:16:10.386Z,12.11
2019-04-19T07:18:28.957Z,12.20
2019-04-19T07:21:07.841Z,12.33
2019-04-19T07:23:41.515Z,12.38
2019-04-19T07:26:11.016Z,12.45
2019-04-19T07:28:23.904Z,12.54
2019-04-19T07:30:58.008Z,12.58
2019-04-19T07:33:31.633Z,12.64
2019-04-19T07:36:11.996Z,12.73
2019-04-19T07:38:46.200Z,12.87
2019-04-19T07:41:16.356Z,12.93
2019-04-19T07:43:46.961Z,13.03
2019-04-19T07:46:19.357Z,13.18
2019-04-19T07:48:36.413Z,13.30
2019-04-19T07:51:13.506Z,13.40
2019-04-19T07:53:42.412Z,13.49
2019-04-19T07:56:21.168Z,13.64
2019-04-19T07:59:02.623Z,13.74
2019-04-19T08:01:45.678Z,13.83
2019-04-19T08:04:24.148Z,14.00
2019-04-19T08:06:41.641Z,14.24
2019-04-19T08:11:52.103Z,14.55
2019-04-19T08:14:09.874Z,14.67
2019-04-19T08:17:17.966Z,14.79
2019-04-19T08:29:08.180Z,15.48
2019-04-19T08:31:25.369Z,15.62
2019-04-19T08:33:55.218Z,15.82
2019-04-19T08:36:31.090Z,16.05
2019-04-19T08:39:14.880Z,16.22
2019-04-19T08:41:46.710Z,16.37
2019-04-19T08:44:16.491Z,16.56
2019-04-19T08:46:30.961Z,16.70
2019-04-19T08:49:05.524Z,16.92
2019-04-19T08:51:37.175Z,16.97
2019-04-19T08:54:28.781Z,17.09
2019-04-19T08:56:44.879Z,17.28
2019-04-19T08:59:34.879Z,17.49
2019-04-19T09:02:03.020Z,17.63
2019-04-19T09:04:33.035Z,17.81
2019-04-19T09:09:35.427Z,18.22
2019-04-19T09:12:06.928Z,18.28
2019-04-19T09:14:36.566Z,18.49
2019-04-19T09:17:12.928Z,18.66
2019-04-19T09:19:55.050Z,18.85
2019-04-19T09:22:07.682Z,18.91
2019-04-19T09:24:31.018Z,19.05
2019-04-19T09:27:06.037Z,19.26
2019-04-19T09:29:49.305Z,19.35
2019-04-19T09:32:05.666Z,19.32
2019-04-19T09:34:27.905Z,19.53
2019-04-19T09:37:06.691Z,19.71
2019-04-19T09:39:42.565Z,19.89
2019-04-19T09:42:07.705Z,19.95
2019-04-19T09:44:39.406Z,20.21
2019-04-19T09:47:03.967Z,20.49
2019-04-19T09:49:50.353Z,20.68
2019-04-19T09:52:31.930Z,20.98
2019-04-19T09:55:02.094Z,21.32
2019-04-19T09:57:29.007Z,21.46
2019-04-19T09:59:40.877Z,21.67
2019-04-19T10:02:19.374Z,21.56
2019-04-19T10:04:42.077Z,21.74
2019-04-19T10:07:11.683Z,22.16
2019-04-19T10:09:41.233Z,22.14
2019-04-19T10:12:11.308Z,22.25
2019-04-19T10:14:41.698Z,22.68
2019-04-19T10:17:20.521Z,22.82
2019-04-19T10:19:50.837Z,22.91
2019-04-19T10:22:20.864Z,22.81
2019-04-19T10:24:53.721Z,22.70
2019-04-19T10:27:26.991Z,22.92
2019-04-19T10:29:57.890Z,23.34
2019-04-19T10:32:29.035Z,23.79
2019-04-19T10:34:58.905Z,24.18
2019-04-19T10:37:28.609Z,24.27
2019-04-19T10:39:57.997Z,23.94
2019-04-19T10:42:27.454Z,24.30
2019-04-19T10:44:58.165Z,24.65
2019-04-19T10:47:29.358Z,25.28
2019-04-19T10:50:14.560Z,25.45
2019-04-19T10:52:31.258Z,25.52
2019-04-19T10:55:00.732Z,25.47
2019-04-19T10:57:31.381Z,25.64
2019-04-19T11:00:03.202Z,25.66
2019-04-19T11:02:34.485Z,25.44
2019-04-19T11:05:05.425Z,25.52
2019-04-19T11:07:36.857Z,25.62
2019-04-19T11:10:07.517Z,26.08
2019-04-19T11:12:38.511Z,26.61
2019-04-19T11:15:08.730Z,27.08
2019-04-19T11:17:38.365Z,27.14
2019-04-19T11:20:23.650Z,27.08
2019-04-19T11:22:39.979Z,26.76
2019-04-19T11:25:10.220Z,26.96
2019-04-19T11:27:40.167Z,26.84
2019-04-19T11:30:12.966Z,26.84
2019-04-19T11:32:44.458Z,26.71
2019-04-19T11:35:14.529Z,27.19
2019-04-19T11:37:44.929Z,27.83
2019-04-19T11:40:15.329Z,28.16
2019-04-19T11:42:45.614Z,28.29
2019-04-19T11:45:15.846Z,28.30
2019-04-19T11:47:45.363Z,28.54
2019-04-19T11:50:15.747Z,29.01
2019-04-19T11:52:48.203Z,29.42
2019-04-19T11:55:18.248Z,29.61
2019-04-19T11:57:56.774Z,29.94
2019-04-19T12:00:40.132Z,30.48
2019-04-19T12:03:12.005Z,30.68
2019-04-19T12:05:42.120Z,30.22
2019-04-19T12:08:12.672Z,30.32
2019-04-19T12:10:42.408Z,30.62
2019-04-19T12:13:12.970Z,30.78
2019-04-19T12:15:44.975Z,30.91
2019-04-19T12:18:14.215Z,30.80
2019-04-19T12:20:44.863Z,29.85
2019-04-19T12:23:15.759Z,29.60
2019-04-19T12:25:45.822Z,30.41
2019-04-19T12:28:15.430Z,32.38
2019-04-19T12:30:51.448Z,34.93
2019-04-19T12:33:17.409Z,36.80
2019-04-19T12:35:47.746Z,37.89
2019-04-19T12:38:17.676Z,38.46
2019-04-19T12:40:54.569Z,39.82
2019-04-19T12:43:24.041Z,40.37
2019-04-19T12:45:55.096Z,40.60
2019-04-19T12:48:25.708Z,41.69
2019-04-19T12:50:55.755Z,42.76
2019-04-19T12:53:25.416Z,43.59
2019-04-19T12:55:56.026Z,44.45
2019-04-19T12:58:26.085Z,45.61
2019-04-19T13:00:57.515Z,45.97
2019-04-19T13:03:38.048Z,44.85
2019-04-19T13:06:27.407Z,44.31
2019-04-19T13:08:57.289Z,44.49
2019-04-19T13:11:27.306Z,43.40
2019-04-19T13:13:57.645Z,43.49
2019-04-19T13:16:28.311Z,43.44
2019-04-19T13:18:58.471Z,44.01
2019-04-19T13:21:28.293Z,44.52
2019-04-19T13:23:58.407Z,44.68
2019-04-19T13:26:29.345Z,45.03
2019-04-19T13:28:59.700Z,45.68
2019-04-19T13:31:31.069Z,46.02
2019-04-19T13:34:00.975Z,46.22
2019-04-19T13:36:34.754Z,46.21
2019-04-19T13:39:21.417Z,45.72
2019-04-19T13:41:52.693Z,45.36
2019-04-19T13:44:22.939Z,45.24
2019-04-19T13:46:52.877Z,45.93
2019-04-19T13:49:22.561Z,46.15
2019-04-19T13:51:52.554Z,46.33
2019-04-19T13:54:22.909Z,46.54
2019-04-19T13:56:52.856Z,46.24
2019-04-19T13:59:26.003Z,45.50
2019-04-19T14:01:54.499Z,44.12
2019-04-19T14:04:25.774Z,42.72
2019-04-19T14:06:56.150Z,43.01
2019-04-19T14:09:27.317Z,43.23
2019-04-19T14:11:57.470Z,43.64
2019-04-19T14:14:27.851Z,43.47
2019-04-19T14:16:59.816Z,42.60
2019-04-19T14:19:29.556Z,42.52
2019-04-19T14:21:58.851Z,42.86
2019-04-19T14:24:29.261Z,43.17
2019-04-19T14:26:59.573Z,41.28
2019-04-19T14:29:29.973Z,41.11
2019-04-19T14:31:59.442Z,40.63
2019-04-19T14:34:29.230Z,40.12
2019-04-19T14:37:00.183Z,39.76
2019-04-19T14:39:30.836Z,39.34
2019-04-19T14:42:09.578Z,38.73
2019-04-19T14:44:39.801Z,38.54
2019-04-19T14:47:10.682Z,39.07
2019-04-19T14:49:40.869Z,39.71
2019-04-19T14:52:11.912Z,39.65
2019-04-19T14:54:42.887Z,39.09
2019-04-19T14:57:13.378Z,38.45
2019-04-19T14:59:43.231Z,37.34
2019-04-19T15:02:15.127Z,37.27
2019-04-19T15:04:58.639Z,37.42
2019-04-19T15:07:28.398Z,37.27
2019-04-19T15:09:58.130Z,37.61
2019-04-19T15:12:28.897Z,37.55
2019-04-19T15:14:59.702Z,37.47
2019-04-19T15:17:29.298Z,37.11
2019-04-19T15:19:59.301Z,36.26
2019-04-19T15:22:30.291Z,35.70
2019-04-19T15:24:59.985Z,35.91
2019-04-19T15:27:30.656Z,35.50
2019-04-19T15:30:01.074Z,35.27
2019-04-19T15:32:30.900Z,35.04
2019-04-19T15:35:01.277Z,34.87
2019-04-19T15:37:31.815Z,34.55
2019-04-19T15:40:02.350Z,34.27
2019-04-19T15:42:32.487Z,33.96
2019-04-19T15:45:03.231Z,33.86
2019-04-19T15:47:32.806Z,33.73
2019-04-19T15:50:02.421Z,33.91
2019-04-19T15:52:32.235Z,33.65
2019-04-19T15:55:02.107Z,33.60
2019-04-19T15:57:32.232Z,33.11
2019-04-19T16:00:02.440Z,32.53
2019-04-19T16:02:44.207Z,32.20
2019-04-19T16:05:33.885Z,31.29
2019-04-19T16:08:09.367Z,30.83
2019-04-19T16:10:42.512Z,30.62
2019-04-19T16:13:11.947Z,30.44
2019-04-19T16:15:42.359Z,29.75
2019-04-19T16:18:12.069Z,29.28
2019-04-19T16:20:44.398Z,28.55
2019-04-19T16:23:13.880Z,27.91
2019-04-19T16:25:44.358Z,27.79
2019-04-19T16:28:15.232Z,27.62
2019-04-19T16:30:44.623Z,27.74
2019-04-19T16:33:14.097Z,27.82
2019-04-19T16:35:44.606Z,27.68
2019-04-19T16:38:14.298Z,27.51
2019-04-19T16:40:43.603Z,27.65
2019-04-19T16:43:13.344Z,27.85
2019-04-19T16:45:44.136Z,28.06
2019-04-19T16:48:14.706Z,28.06
2019-04-19T16:50:44.349Z,27.99
2019-04-19T16:53:13.738Z,27.80
2019-04-19T16:55:43.688Z,27.36
2019-04-19T16:58:14.595Z,27.04
2019-04-19T17:00:47.033Z,26.88
2019-04-19T17:03:17.486Z,26.88
2019-04-19T17:05:48.653Z,26.73
2019-04-19T17:08:19.573Z,26.39
2019-04-19T17:10:49.181Z,26.14
2019-04-19T17:13:18.567Z,25.66
2019-04-19T17:15:50.769Z,25.42
2019-04-19T17:18:30.941Z,24.82
2019-04-19T17:21:07.974Z,24.27
2019-04-19T17:23:37.504Z,23.89
2019-04-19T17:26:07.183Z,23.60
2019-04-19T17:28:36.919Z,23.44
2019-04-19T17:31:06.543Z,23.21
2019-04-19T17:33:36.022Z,23.09
2019-04-19T17:36:06.140Z,22.96
2019-04-19T17:38:41.442Z,22.81
2019-04-19T17:41:07.615Z,22.55
2019-04-19T17:43:37.544Z,22.31
2019-04-19T17:46:08.687Z,22.21
2019-04-19T17:48:38.765Z,22.01
2019-04-19T17:51:09.579Z,21.91
2019-04-19T17:53:42.651Z,21.74
2019-04-19T17:56:11.269Z,21.56
2019-04-19T17:58:42.340Z,21.45
2019-04-19T18:01:12.448Z,21.41
2019-04-19T18:03:42.906Z,21.32
2019-04-19T18:06:12.629Z,21.20
2019-04-19T18:08:44.570Z,21.04
2019-04-19T18:11:20.377Z,20.86
2019-04-19T18:13:44.525Z,20.65
2019-04-19T18:16:14.389Z,20.49
2019-04-19T18:18:47.853Z,20.24
2019-04-19T18:21:16.482Z,20.04
2019-04-19T18:23:52.809Z,19.95
2019-04-19T18:26:24.359Z,19.81
2019-04-19T18:28:49.726Z,19.71
2019-04-19T18:31:24.651Z,19.63
2019-04-19T18:34:01.671Z,19.48
2019-04-19T18:36:25.605Z,19.32
2019-04-19T18:38:55.722Z,19.24
2019-04-19T18:41:25.344Z,19.14
2019-04-19T18:44:05.973Z,19.01
2019-04-19T18:46:26.850Z,18.87
2019-04-19T18:48:57.761Z,18.69
2019-04-19T18:51:34.948Z,18.56
2019-04-19T18:54:11.377Z,18.48
2019-04-19T18:56:30.361Z,18.43
2019-04-19T18:59:08.259Z,18.35
2019-04-19T19:01:37.722Z,18.22
2019-04-19T19:04:05.021Z,18.07
2019-04-19T19:06:38.405Z,17.96
2019-04-19T19:09:11.115Z,17.91
2019-04-19T19:11:40.168Z,17.85
2019-04-19T19:14:14.450Z,17.78
2019-04-19T19:16:42.853Z,17.66
2019-04-19T19:19:19.264Z,17.56
2019-04-19T19:22:04.274Z,17.52
2019-04-19T19:24:52.470Z,17.47
2019-04-19T19:27:13.890Z,17.38
2019-04-19T19:29:36.482Z,17.35
2019-04-19T19:32:10.655Z,17.23
2019-04-19T19:34:36.924Z,17.08
2019-04-19T19:37:09.989Z,16.95
2019-04-19T19:39:41.019Z,16.86
2019-04-19T19:42:44.724Z,16.79
2019-04-19T19:45:14.023Z,16.75
2019-04-19T19:47:54.510Z,16.65
2019-04-19T19:50:22.633Z,16.60
2019-04-19T19:52:53.291Z,16.56
2019-04-19T19:55:17.591Z,16.51
2019-04-19T19:57:44.768Z,16.49
2019-04-19T20:00:15.778Z,16.43
2019-04-19T20:02:51.481Z,16.45
2019-04-19T20:05:12.190Z,16.42
2019-04-19T20:07:46.062Z,16.42
2019-04-19T20:10:14.161Z,16.32
2019-04-19T20:12:51.832Z,16.25
2019-04-19T20:15:15.198Z,16.17
2019-04-19T20:17:51.022Z,16.08
2019-04-19T20:20:21.599Z,16.02
2019-04-19T20:22:50.413Z,15.99
2019-04-19T20:25:32.938Z,15.93
2019-04-19T20:27:53.772Z,15.88
2019-04-19T20:30:21.681Z,15.78
2019-04-19T20:32:55.821Z,15.78
2019-04-19T20:35:24.689Z,15.71
2019-04-19T20:37:58.549Z,15.66
2019-04-19T20:40:26.219Z,15.52
2019-04-19T20:43:14.737Z,15.42
2019-04-19T20:45:36.895Z,15.32
2019-04-19T20:48:07.073Z,15.25
2019-04-19T20:50:43.578Z,15.27
2019-04-19T20:53:14.678Z,15.29
2019-04-19T20:55:55.376Z,15.28
2019-04-19T20:58:24.500Z,15.17
2019-04-19T21:00:42.370Z,15.01
2019-04-19T21:03:15.703Z,15.03
2019-04-19T21:05:46.440Z,15.01
2019-04-19T21:08:16.224Z,14.94
2019-04-19T21:10:53.826Z,14.88
2019-04-19T21:13:19.593Z,14.78
2019-04-19T21:15:48.714Z,14.73
2019-04-19T21:18:23.551Z,14.68
2019-04-19T21:20:50.261Z,14.67
2019-04-19T21:23:25.419Z,14.64
2019-04-19T21:25:57.012Z,14.61
2019-04-19T21:28:29.656Z,14.60
2019-04-19T21:30:57.412Z,14.57
2019-04-19T21:33:24.761Z,14.53
2019-04-19T21:36:02.202Z,14.46
2019-04-19T21:38:26.861Z,14.46
2019-04-19T21:40:57.654Z,14.45
2019-04-19T21:43:31.004Z,14.47
2019-04-19T21:45:59.375Z,14.43
2019-04-19T21:48:35.914Z,14.38
2019-04-19T21:51:00.219Z,14.43
2019-04-19T21:53:34.634Z,14.37
2019-04-19T21:56:05.777Z,14.31
2019-04-19T21:58:31.987Z,14.38
2019-04-19T22:01:08.756Z,14.36
2019-04-19T22:03:32.767Z,14.33
2019-04-19T22:06:13.269Z,14.27
2019-04-19T22:08:36.959Z,14.23
2019-04-19T22:11:06.502Z,14.13
2019-04-19T22:13:40.911Z,14.05
2019-04-19T22:16:08.338Z,14.03
2019-04-19T22:18:44.184Z,14.00
2019-04-19T22:21:10.437Z,13.94
2019-04-19T22:23:45.759Z,13.95
2019-04-19T22:26:21.184Z,13.96
2019-04-19T22:28:43.782Z,13.90
2019-04-19T22:31:20.823Z,13.88
2019-04-19T22:33:44.357Z,13.84
2019-04-19T22:36:13.824Z,13.79
2019-04-19T22:38:50.132Z,13.76
2019-04-19T22:41:17.586Z,13.76
2019-04-19T22:43:46.827Z,13.69
2019-04-19T22:46:17.138Z,13.53
2019-04-19T22:48:54.071Z,13.49
2019-04-19T22:51:18.839Z,13.46
2019-04-19T22:53:48.577Z,13.39
2019-04-19T22:56:25.838Z,13.31
2019-04-19T22:58:49.535Z,13.32
2019-04-19T23:01:28.362Z,13.29
2019-04-19T23:03:59.293Z,13.22
2019-04-19T23:06:30.933Z,13.19
2019-04-19T23:09:00.959Z,13.20
2019-04-19T23:11:30.502Z,13.19
2019-04-19T23:14:01.145Z,13.16
2019-04-19T23:16:34.909Z,13.10
2019-04-19T23:19:05.944Z,13.03
2019-04-19T23:21:33.267Z,13.03
2019-04-19T23:24:06.871Z,13.03
2019-04-19T23:26:55.734Z,12.98
2019-04-19T23:29:04.976Z,12.90
2019-04-19T23:31:41.243Z,12.83
2019-04-19T23:34:07.621Z,12.77
2019-04-19T23:36:37.526Z,12.74
2019-04-19T23:39:11.056Z,12.71
2019-04-19T23:41:39.352Z,12.72
2019-04-19T23:44:13.304Z,12.67
2019-04-19T23:46:41.347Z,12.62
2019-04-19T23:49:15.566Z,12.59
2019-04-19T23:51:43.234Z,12.59
2019-04-19T23:54:21.112Z,12.57
2019-04-19T23:56:54.047Z,12.53
2019-04-19T23:59:19.009Z,12.48
